LZIB/BTS METAR and TAF weather

Enter ICAO airport designator
Station Type Date Time Source
LZIB METAR 2021/08/01 16:30 UTC NOAA

LZIB 011630Z 27015KT 9999 FEW017 19/15 Q1006 NOSIG


Station Type Date Time Source
LZIB Decoded METAR 2021/08/01 16:30 UTC NOAA

Bratislava Ivanka, Slovakia (LZIB) 48-12N 017-12E 142M
Aug 01, 2021 - 12:30 PM EDT / 2021.08.01 1630 UTC
Wind: from the W (270 degrees) at 17 MPH (15 KT):0
Visibility: greater than 7 mile(s):0
Sky conditions: mostly clear
Temperature: 66 F (19 C)
Dew Point: 59 F (15 C)
Relative Humidity: 77%
Pressure (altimeter): 29.71 in. Hg (1006 hPa)
ob: LZIB 011630Z 27015KT 9999 FEW017 19/15 Q1006 NOSIG
cycle: 16

Station Type Date Time Source
LZIB TAF 2021/08/01 18:37 UTC NOAA

TAF LZIB 011700Z 0118/0218 28009KT 9999 FEW020 SCT045
TEMPO 0118/0203 27019KT CAVOK

Example: see airport list